KGSH/GSH METAR and TAF weather

Enter ICAO airport designator
Station Type Date Time Source
KGSH METAR 2018/12/11 19:53 UTC NOAA

KGSH 111953Z AUTO 25011KT 7SM FEW023 02/M03 A3000 RMK AO2 SLP169 T00221033


Station Type Date Time Source
KGSH Decoded METAR 2018/12/11 19:53 UTC NOAA

GOSHEN MUNICIPAL AIRPORT, IN, United States (KGSH) 41-32N 85-47W 252M
Dec 11, 2018 - 02:53 PM EST / 2018.12.11 1953 UTC
Wind: from the WSW (250 degrees) at 13 MPH (11 KT):0
Visibility: 7 mile(s):0
Sky conditions: mostly clear
Temperature: 36.0 F (2.2 C)
Dew Point: 26.1 F (-3.3 C)
Relative Humidity: 66%
Pressure (altimeter): 30 in. Hg (1015 hPa)
ob: KGSH 111953Z AUTO 25011KT 7SM FEW023 02/M03 A3000 RMK AO2 SLP169 T00221033
cycle: 20

Station Type Date Time Source
KGSH TAF UTC NOAA

Error!


Example: see airport list